Time;durP1;ratioP1;P1;durP2;ratioP2;P2;SDS_P1;SDS_P2;PMS_P1;PMS_P2;Temp;Humidity;BMP_temperature;BMP_pressure;BME280_temperature;BME280_humidity;BME280_pressure;Samples;Min_cycle;Max_cycle;Signal;HPM_P1;HPM_P2
2023/09/20 00:02:08;;;;;;;;;;;;;;;16.62;100.00;100768.22;4974399;28;19941;-74
2023/09/20 00:04:35;;;;;;;;;;;;;;;16.58;100.00;100761.44;4976775;28;20112;-74
2023/09/20 00:07:02;;;;;;;;;;;;;;;16.58;100.00;100769.38;4972369;28;19921;-74
2023/09/20 00:09:30;;;;;;;;;;;;;;;16.58;100.00;100768.53;4974672;28;19925;-74
2023/09/20 00:11:56;;;;;;;;;;;;;;;16.57;100.00;100766.84;4974240;28;19922;-74
2023/09/20 00:14:22;;;;;;;;;;;;;;;16.57;100.00;100769.47;4991071;28;19968;-74
2023/09/20 00:16:47;;;;;;;;;;;;;;;16.57;100.00;100765.06;4990319;28;19917;-74
2023/09/20 00:19:13;;;;;;;;;;;;;;;16.56;100.00;100771.28;4983229;28;19944;-74
2023/09/20 00:21:39;;;;;;;;;;;;;;;16.56;100.00;100766.00;4974686;28;20145;-74
2023/09/20 00:24:04;;;;;;;;;;;;;;;16.55;100.00;100761.63;4975141;28;20239;-74
2023/09/20 00:26:31;;;;;;;;;;;;;;;16.56;100.00;100768.63;4975459;28;19945;-74
2023/09/20 00:29:03;;;;;;;;;;;;;;;16.57;100.00;100764.19;4981006;28;20347;-74
2023/09/20 00:31:29;;;;;;;;;;;;;;;16.54;100.00;100759.13;4984931;28;20145;-74
2023/09/20 00:33:56;;;;;;;;;;;;;;;16.53;100.00;100755.63;4990758;28;19952;-74
2023/09/20 00:36:21;;;;;;;;;;;;;;;16.54;100.00;100756.47;4990622;28;19905;-74
2023/09/20 00:38:52;;;;;;;;;;;;;;;16.56;100.00;100760.72;4964539;28;19924;-74
2023/09/20 00:41:18;;;;;;;;;;;;;;;16.54;100.00;100749.41;4973470;28;19981;-74
2023/09/20 00:43:44;;;;;;;;;;;;;;;16.53;100.00;100763.53;4964147;28;19985;-74
2023/09/20 00:46:11;;;;;;;;;;;;;;;16.55;100.00;100764.28;4973825;28;19921;-74
2023/09/20 00:48:41;;;;;;;;;;;;;;;16.56;100.00;100763.34;4990344;28;19909;-74
2023/09/20 00:51:06;;;;;;;;;;;;;;;16.58;100.00;100744.75;4990766;28;19953;-74
2023/09/20 00:53:32;;;;;;;;;;;;;;;16.56;100.00;100755.41;4974135;28;20209;-74
2023/09/20 00:55:58;;;;;;;;;;;;;;;16.52;100.00;100753.94;4970885;28;19914;-74
2023/09/20 00:58:24;;;;;;;;;;;;;;;16.54;100.00;100738.81;4990475;28;20242;-74
2023/09/20 01:00:53;;;;;;;;;;;;;;;16.55;100.00;100748.44;4974523;28;19918;-74
2023/09/20 01:03:19;;;;;;;;;;;;;;;16.55;100.00;100737.84;4974240;28;19960;-74
2023/09/20 01:05:47;;;;;;;;;;;;;;;16.54;100.00;100741.47;4990681;28;19914;-74
2023/09/20 01:08:12;;;;;;;;;;;;;;;16.55;100.00;100737.84;4974402;28;19924;-74
2023/09/20 01:10:38;;;;;;;;;;;;;;;16.54;100.00;100735.34;4974085;28;19922;-74
2023/09/20 01:13:05;;;;;;;;;;;;;;;16.53;100.00;100733.63;4969053;28;20120;-74
2023/09/20 01:15:34;;;;;;;;;;;;;;;16.51;100.00;100725.78;4974549;28;19968;-74
2023/09/20 01:18:01;;;;;;;;;;;;;;;16.53;100.00;100723.06;4970850;28;19918;-74
2023/09/20 01:20:27;;;;;;;;;;;;;;;16.55;100.00;100724.63;4983765;28;19985;-74
2023/09/20 01:22:59;;;;;;;;;;;;;;;16.56;100.00;100726.34;4990147;28;19918;-74
2023/09/20 01:25:26;;;;;;;;;;;;;;;16.57;100.00;100721.88;4990550;28;20250;-74
2023/09/20 01:27:55;;;;;;;;;;;;;;;16.60;100.00;100724.34;4989969;28;20124;-74
2023/09/20 01:30:21;;;;;;;;;;;;;;;16.59;100.00;100725.28;4970921;28;19914;-74
2023/09/20 01:32:46;;;;;;;;;;;;;;;16.57;100.00;100720.13;4975070;28;19918;-74
2023/09/20 01:35:13;;;;;;;;;;;;;;;16.60;100.00;100725.19;4974006;28;20108;-74
2023/09/20 01:37:39;;;;;;;;;;;;;;;16.61;100.00;100729.53;4973957;28;19918;-74
2023/09/20 01:40:14;;;;;;;;;;;;;;;16.63;100.00;100726.78;4974671;28;20112;-74
2023/09/20 01:42:40;;;;;;;;;;;;;;;16.62;100.00;100728.56;4981135;28;19949;-74
2023/09/20 01:45:06;;;;;;;;;;;;;;;16.60;100.00;100729.63;4975054;28;19914;-74
2023/09/20 01:47:31;;;;;;;;;;;;;;;16.60;100.00;100726.97;4976558;28;19918;-74
2023/09/20 01:49:57;;;;;;;;;;;;;;;16.56;100.00;100718.41;4992286;28;19984;-74
2023/09/20 01:52:24;;;;;;;;;;;;;;;16.58;100.00;100720.97;4977212;28;20136;-74
2023/09/20 01:54:55;;;;;;;;;;;;;;;16.58;100.00;100713.84;4978216;28;19918;-74
2023/09/20 01:57:21;;;;;;;;;;;;;;;16.57;100.00;100725.41;4978494;28;20315;-74
2023/09/20 01:59:47;;;;;;;;;;;;;;;16.56;100.00;100717.56;4975941;28;19918;-74
2023/09/20 02:02:13;;;;;;;;;;;;;;;16.54;100.00;100711.53;4976892;28;19921;-74
2023/09/20 02:04:39;;;;;;;;;;;;;;;16.50;100.00;100714.38;4976521;28;19941;-74
2023/09/20 02:07:06;;;;;;;;;;;;;;;16.54;100.00;100714.19;4976769;28;20438;-74
2023/09/20 02:09:32;;;;;;;;;;;;;;;16.50;100.00;100719.69;4964527;28;20177;-74
2023/09/20 02:11:58;;;;;;;;;;;;;;;16.51;100.00;100715.22;4976851;28;20233;-74
2023/09/20 02:14:23;;;;;;;;;;;;;;;16.50;100.00;100719.69;4977823;28;19924;-74
2023/09/20 02:16:50;;;;;;;;;;;;;;;16.50;100.00;100716.19;4983761;28;20226;-74
2023/09/20 02:19:19;;;;;;;;;;;;;;;16.49;100.00;100709.19;4976358;28;20224;-74
2023/09/20 02:21:45;;;;;;;;;;;;;;;16.50;100.00;100705.63;4968574;28;19910;-74
2023/09/20 02:24:11;;;;;;;;;;;;;;;16.49;100.00;100709.19;4976305;28;19918;-74
2023/09/20 02:26:37;;;;;;;;;;;;;;;16.45;100.00;100694.50;4976475;28;19934;-74
2023/09/20 02:29:03;;;;;;;;;;;;;;;16.45;100.00;100695.34;4972291;28;20209;-74
2023/09/20 02:31:28;;;;;;;;;;;;;;;16.46;100.00;100690.91;4976134;28;20182;-74
2023/09/20 02:33:55;;;;;;;;;;;;;;;16.50;100.00;100690.59;4977914;28;19918;-75
2023/09/20 02:36:20;;;;;;;;;;;;;;;16.50;100.00;100693.25;4992518;28;19917;-75
2023/09/20 02:38:46;;;;;;;;;;;;;;;16.46;100.00;100691.75;4976286;28;20145;-75
2023/09/20 02:41:12;;;;;;;;;;;;;;;16.48;100.00;100686.34;4976325;28;19918;-74
2023/09/20 02:43:38;;;;;;;;;;;;;;;16.47;100.00;100677.59;4975987;28;20108;-75
2023/09/20 02:46:05;;;;;;;;;;;;;;;16.47;100.00;100672.28;4976428;28;20116;-75
2023/09/20 02:48:31;;;;;;;;;;;;;;;16.49;100.00;100677.47;4975805;28;20373;-75
2023/09/20 02:51:00;;;;;;;;;;;;;;;16.48;100.00;100676.66;4975230;28;19928;-75
2023/09/20 02:53:26;;;;;;;;;;;;;;;16.50;100.00;100658.88;4982114;28;19910;-75
2023/09/20 02:55:51;;;;;;;;;;;;;;;16.48;100.00;100660.78;4976010;28;19946;-75
2023/09/20 02:58:17;;;;;;;;;;;;;;;16.50;100.00;100660.69;4983695;28;19918;-75
2023/09/20 03:00:50;;;;;;;;;;;;;;;16.48;100.00;100652.84;4976164;28;19956;-75
2023/09/20 03:03:17;;;;;;;;;;;;;;;16.48;100.00;100660.78;4976037;28;19925;-75
2023/09/20 03:05:42;;;;;;;;;;;;;;;16.48;100.00;100652.84;4976189;28;19978;-75
2023/09/20 03:08:13;;;;;;;;;;;;;;;16.50;100.00;100650.09;4968783;28;20148;-75
2023/09/20 03:10:41;;;;;;;;;;;;;;;16.50;100.00;100642.19;4973409;28;19996;-75
2023/09/20 03:13:07;;;;;;;;;;;;;;;16.51;100.00;100643.84;4992286;28;20120;-75
2023/09/20 03:15:32;;;;;;;;;;;;;;;16.49;100.00;100636.03;4991902;28;19910;-75
2023/09/20 03:18:00;;;;;;;;;;;;;;;16.46;100.00;100641.53;4991417;28;19914;-75
2023/09/20 03:20:26;;;;;;;;;;;;;;;16.46;100.00;100644.19;4991570;28;20277;-75
2023/09/20 03:22:52;;;;;;;;;;;;;;;16.49;100.00;100636.03;4976698;28;19913;-75
2023/09/20 03:25:19;;;;;;;;;;;;;;;16.47;100.00;100637.09;4991615;28;20439;-75
2023/09/20 03:27:45;;;;;;;;;;;;;;;16.45;100.00;100634.56;4991633;28;19914;-75
2023/09/20 03:30:13;;;;;;;;;;;;;;;16.47;100.00;100629.16;4988345;28;19918;-75
2023/09/20 03:32:40;;;;;;;;;;;;;;;16.45;100.00;100631.06;4967117;28;20013;-75
2023/09/20 03:35:06;;;;;;;;;;;;;;;16.45;100.00;100623.97;4975083;28;20025;-75
2023/09/20 03:37:33;;;;;;;;;;;;;;;16.44;100.00;100632.84;4975562;28;19918;-75
2023/09/20 03:39:58;;;;;;;;;;;;;;;16.44;100.00;100634.66;4976462;28;19917;-75
2023/09/20 03:42:24;;;;;;;;;;;;;;;16.43;100.00;100623.25;4975130;28;19918;-75
2023/09/20 03:44:50;;;;;;;;;;;;;;;16.46;100.00;100624.81;4986740;28;19922;-75
2023/09/20 03:47:16;;;;;;;;;;;;;;;16.46;100.00;100620.41;4975515;28;20116;-75
2023/09/20 03:49:42;;;;;;;;;;;;;;;16.46;100.00;100622.19;4975049;28;19985;-75
2023/09/20 03:52:07;;;;;;;;;;;;;;;16.45;100.00;100617.84;4975112;28;19914;-75
2023/09/20 03:54:33;;;;;;;;;;;;;;;16.43;100.00;100612.66;4975007;28;19926;-75
2023/09/20 03:56:59;;;;;;;;;;;;;;;16.42;100.00;100612.78;4991093;28;19921;-75
2023/09/20 03:59:26;;;;;;;;;;;;;;;16.43;100.00;100607.38;4976202;28;20312;-75
2023/09/20 04:01:52;;;;;;;;;;;;;;;16.44;100.00;100610.88;4974066;28;19913;-75
2023/09/20 04:04:17;;;;;;;;;;;;;;;16.44;100.00;100613.50;4991029;28;20338;-75
2023/09/20 04:06:44;;;;;;;;;;;;;;;16.40;100.00;100612.88;4974605;28;19933;-75
2023/09/20 04:09:10;;;;;;;;;;;;;;;16.41;100.00;100605.78;4972384;28;20439;-75
2023/09/20 04:11:36;;;;;;;;;;;;;;;16.41;100.00;100605.78;4990930;28;19922;-75
2023/09/20 04:14:02;;;;;;;;;;;;;;;16.40;100.00;100601.47;4974844;28;19960;-74
2023/09/20 04:16:28;;;;;;;;;;;;;;;16.38;100.00;100601.56;4974531;28;19918;-75
2023/09/20 04:18:54;;;;;;;;;;;;;;;16.38;100.00;100611.31;4990539;28;19925;-75
2023/09/20 04:21:20;;;;;;;;;;;;;;;16.38;100.00;100603.38;4974648;28;19913;-75
2023/09/20 04:23:46;;;;;;;;;;;;;;;16.36;100.00;100587.63;4974272;28;20128;-74
2023/09/20 04:26:11;;;;;;;;;;;;;;;16.35;100.00;100587.72;4974497;28;19983;-75
2023/09/20 04:28:36;;;;;;;;;;;;;;;16.37;100.00;100588.44;4969188;28;20129;-75
2023/09/20 04:31:03;;;;;;;;;;;;;;;16.37;100.00;100593.75;4971170;28;19918;-75
2023/09/20 04:33:29;;;;;;;;;;;;;;;16.36;100.00;100584.13;4962673;28;19918;-75
2023/09/20 04:35:57;;;;;;;;;;;;;;;16.33;100.00;100589.63;4974369;28;20101;-75
2023/09/20 04:38:23;;;;;;;;;;;;;;;16.36;100.00;100584.13;4972082;28;19914;-75
2023/09/20 04:40:48;;;;;;;;;;;;;;;16.35;100.00;100574.50;4990875;28;20251;-75
2023/09/20 04:43:14;;;;;;;;;;;;;;;16.31;100.00;100566.78;4974387;28;19941;-74
2023/09/20 04:45:40;;;;;;;;;;;;;;;16.30;100.00;100564.28;4963628;28;20064;-75
2023/09/20 04:48:06;;;;;;;;;;;;;;;16.26;100.00;100565.41;4990912;28;19960;-75
2023/09/20 04:50:32;;;;;;;;;;;;;;;16.25;100.00;100577.78;4973951;28;19918;-74
2023/09/20 04:52:58;;;;;;;;;;;;;;;16.28;100.00;100574.06;4974225;28;19922;-75
2023/09/20 04:55:24;;;;;;;;;;;;;;;16.25;100.00;100575.13;4987373;28;19976;-75
2023/09/20 04:57:50;;;;;;;;;;;;;;;16.24;100.00;100573.44;4970983;28;19918;-75
2023/09/20 05:00:20;;;;;;;;;;;;;;;16.25;100.00;100572.50;4965807;28;20161;-75
2023/09/20 05:02:45;;;;;;;;;;;;;;;16.23;100.00;100571.75;4966542;28;20134;-74
2023/09/20 05:05:11;;;;;;;;;;;;;;;16.24;100.00;100573.44;4975697;28;20239;-75
2023/09/20 05:07:36;;;;;;;;;;;;;;;16.23;100.00;100571.75;4973514;28;19918;-75
2023/09/20 05:10:02;;;;;;;;;;;;;;;16.25;100.00;100569.84;4968195;28;19952;-75
2023/09/20 05:12:27;;;;;;;;;;;;;;;16.25;100.00;100558.44;4963462;28;19922;-75
2023/09/20 05:14:53;;;;;;;;;;;;;;;16.25;100.00;100561.94;4970946;28;19941;-75
2023/09/20 05:17:19;;;;;;;;;;;;;;;16.26;100.00;100570.69;4979280;28;19914;-75
2023/09/20 05:19:44;;;;;;;;;;;;;;;16.25;100.00;100566.38;4993925;28;20154;-75
2023/09/20 05:22:11;;;;;;;;;;;;;;;16.23;100.00;100566.47;4978274;28;19913;-75
2023/09/20 05:24:37;;;;;;;;;;;;;;;16.22;100.00;100575.34;4976271;28;19952;-75
2023/09/20 05:27:02;;;;;;;;;;;;;;;16.22;100.00;100564.78;4977756;28;19918;-75
2023/09/20 05:29:28;;;;;;;;;;;;;;;16.24;100.00;100567.31;4968384;28;20304;-75
2023/09/20 05:31:53;;;;;;;;;;;;;;;16.22;100.00;100563.94;4971230;28;19940;-75
2023/09/20 05:34:18;;;;;;;;;;;;;;;16.20;100.00;100558.75;4976385;28;19918;-75
2023/09/20 05:36:45;;;;;;;;;;;;;;;16.19;100.00;100558.84;4974282;28;20051;-75
2023/09/20 05:39:12;;;;;;;;;;;;;;;16.19;100.00;100570.28;4974320;28;19993;-75
2023/09/20 05:41:39;;;;;;;;;;;;;;;16.17;100.00;100569.56;4988946;28;20059;-74
2023/09/20 05:44:05;;;;;;;;;;;;;;;16.16;100.00;100569.66;4975244;28;19960;-75
2023/09/20 05:46:31;;;;;;;;;;;;;;;16.16;100.00;100559.09;4975306;28;19921;-75
2023/09/20 05:48:57;;;;;;;;;;;;;;;16.18;100.00;100567.75;4990713;28;20246;-75
2023/09/20 05:51:22;;;;;;;;;;;;;;;16.19;100.00;100569.41;4991234;28;19918;-75
2023/09/20 05:53:48;;;;;;;;;;;;;;;16.20;100.00;100571.13;4972549;28;20098;-75
2023/09/20 05:56:14;;;;;;;;;;;;;;;16.16;100.00;100567.00;4971889;28;19922;-75
2023/09/20 05:58:42;;;;;;;;;;;;;;;16.18;100.00;100565.94;4974873;28;19921;-75
2023/09/20 06:01:09;;;;;;;;;;;;;;;16.19;100.00;100575.56;4991158;28;19969;-75
2023/09/20 06:03:35;;;;;;;;;;;;;;;16.18;100.00;100573.03;4990953;28;19964;-75
2023/09/20 06:06:00;;;;;;;;;;;;;;;16.20;100.00;100565.84;4987355;28;20372;-75
2023/09/20 06:08:26;;;;;;;;;;;;;;;16.23;100.00;100568.28;4987340;28;20014;-75
2023/09/20 06:10:52;;;;;;;;;;;;;;;16.19;100.00;100567.66;4970769;28;19922;-75
2023/09/20 06:13:18;;;;;;;;;;;;;;;16.22;100.00;100567.41;4974621;28;19922;-74
2023/09/20 06:15:43;;;;;;;;;;;;;;;16.23;100.00;100570.94;4990532;28;19926;-75
2023/09/20 06:18:08;;;;;;;;;;;;;;;16.22;100.00;100563.94;4975547;28;19922;-75
2023/09/20 06:20:36;;;;;;;;;;;;;;;16.24;100.00;100567.31;4972962;28;19918;-75
2023/09/20 06:23:03;;;;;;;;;;;;;;;16.23;100.00;100558.56;4969839;28;19918;-74
2023/09/20 06:25:29;;;;;;;;;;;;;;;16.23;100.00;100555.91;4965390;28;20209;-74
2023/09/20 06:27:54;;;;;;;;;;;;;;;16.23;100.00;100555.06;4973744;28;19945;-74
2023/09/20 06:30:21;;;;;;;;;;;;;;;16.22;100.00;100567.41;4985028;28;19925;-74
2023/09/20 06:32:47;;;;;;;;;;;;;;;16.22;100.00;100562.13;4971002;28;20115;-75
2023/09/20 06:35:15;;;;;;;;;;;;;;;16.22;100.00;100563.94;4971629;28;19922;-74
2023/09/20 06:37:45;;;;;;;;;;;;;;;16.24;100.00;100559.38;4966178;28;19918;-74
2023/09/20 06:40:17;;;;;;;;;;;;;;;16.25;100.00;100564.56;4966507;28;19924;-75
2023/09/20 06:42:43;;;;;;;;;;;;;;;16.26;100.00;100561.00;4968925;28;19964;-74
2023/09/20 06:45:11;;;;;;;;;;;;;;;16.27;100.00;100567.94;4965830;28;19918;-75
2023/09/20 06:47:36;;;;;;;;;;;;;;;16.24;100.00;100562.88;4969983;28;20119;-75
2023/09/20 06:50:05;;;;;;;;;;;;;;;16.25;100.00;100571.66;4968976;28;20390;-75
2023/09/20 06:52:30;;;;;;;;;;;;;;;16.26;100.00;100566.28;4961929;28;20008;-74
2023/09/20 06:54:55;;;;;;;;;;;;;;;16.26;100.00;100555.72;4965927;28;19922;-74
2023/09/20 06:57:22;;;;;;;;;;;;;;;16.26;100.00;100561.00;4959229;28;19918;-74
2023/09/20 06:59:47;;;;;;;;;;;;;;;16.27;100.00;100549.44;4955599;28;20126;-74
2023/09/20 07:02:14;;;;;;;;;;;;;;;16.27;100.00;100556.53;4964063;28;19956;-74
2023/09/20 07:04:40;;;;;;;;;;;;;;;16.27;100.00;100573.22;4971155;28;19918;-74
2023/09/20 07:07:07;;;;;;;;;;;;;;;16.28;100.00;100564.38;4964665;28;20113;-74
2023/09/20 07:09:34;;;;;;;;;;;;;;;16.31;100.00;100574.69;4967798;28;20315;-74
2023/09/20 07:12:01;;;;;;;;;;;;;;;16.34;100.00;100572.81;4959819;28;19926;-74
2023/09/20 07:14:28;;;;;;;;;;;;;;;16.35;100.00;100582.44;4963144;28;19917;-74
2023/09/20 07:16:55;;;;;;;;;;;;;;;16.34;100.00;100581.59;4968587;28;19927;-74
2023/09/20 07:19:23;;;;;;;;;;;;;;;16.31;100.00;100577.34;4967483;28;20217;-74
2023/09/20 07:21:48;;;;;;;;;;;;;;;16.30;100.00;100574.84;4966463;28;19918;-74
2023/09/20 07:24:14;;;;;;;;;;;;;;;16.31;100.00;100584.44;4968137;28;19949;-74
2023/09/20 07:26:43;;;;;;;;;;;;;;;16.32;100.00;100586.16;4972087;28;19958;-74
2023/09/20 07:29:09;;;;;;;;;;;;;;;16.31;100.00;100582.63;4972978;28;20106;-74
2023/09/20 07:31:36;;;;;;;;;;;;;;;16.28;100.00;100574.94;4969318;28;19922;-74
2023/09/20 07:34:04;;;;;;;;;;;;;;;16.30;100.00;100580.97;4972331;28;20133;-74
2023/09/20 07:36:30;;;;;;;;;;;;;;;16.32;100.00;100578.22;4964397;28;20156;-74
2023/09/20 07:38:56;;;;;;;;;;;;;;;16.26;100.00;100590.06;4969414;28;19922;-74
2023/09/20 07:41:22;;;;;;;;;;;;;;;16.29;100.00;100591.63;4974247;28;20421;-74
2023/09/20 07:43:47;;;;;;;;;;;;;;;16.29;100.00;100610.13;4972945;28;19918;-74
2023/09/20 07:46:13;;;;;;;;;;;;;;;16.30;100.00;100602.09;4971198;28;19977;-74
2023/09/20 07:48:46;;;;;;;;;;;;;;;16.31;100.00;100595.00;4972656;28;19922;-74
2023/09/20 07:51:13;;;;;;;;;;;;;;;16.30;100.00;100596.81;4970424;28;19922;-75
2023/09/20 07:53:39;;;;;;;;;;;;;;;16.37;100.00;100606.94;4971301;28;19983;-74
2023/09/20 07:56:05;;;;;;;;;;;;;;;16.38;100.00;100606.84;4964808;28;19928;-74
2023/09/20 07:58:40;;;;;;;;;;;;;;;16.37;100.00;100610.47;4965079;28;19918;-74
2023/09/20 08:01:12;;;;;;;;;;;;;;;16.40;100.00;100609.41;4970544;28;19950;-74
2023/09/20 08:03:51;;;;;;;;;;;;;;;16.39;100.00;100612.97;4964006;28;19918;-74
2023/09/20 08:06:19;;;;;;;;;;;;;;;16.37;100.00;100604.31;4968830;28;19960;-74
2023/09/20 08:08:45;;;;;;;;;;;;;;;16.37;100.00;100613.09;4963000;28;20023;-74
2023/09/20 08:11:11;;;;;;;;;;;;;;;16.38;100.00;100612.13;4969781;28;19943;-74
2023/09/20 08:13:36;;;;;;;;;;;;;;;16.39;100.00;100619.13;4966479;28;19945;-74
2023/09/20 08:16:02;;;;;;;;;;;;;;;16.38;100.00;100613.94;4971527;28;19917;-74
2023/09/20 08:21:12;;;;;;;;;;;;;;;16.39;100.00;100615.63;4966790;28;19943;-74
2023/09/20 09:01:55;;;;;;;;;;;;;;;16.46;100.00;100596.63;4967137;28;20241;-74
2023/09/20 09:04:20;;;;;;;;;;;;;;;16.46;100.00;100590.47;4974432;28;19979;-74
2023/09/20 09:06:46;;;;;;;;;;;;;;;16.50;100.00;100610.47;4969475;28;20173;-74
2023/09/20 09:09:11;;;;;;;;;;;;;;;16.49;100.00;100596.38;4976695;28;19922;-74
2023/09/20 09:11:37;;;;;;;;;;;;;;;16.50;100.00;100597.25;4974596;28;19922;-74
2023/09/20 09:14:03;;;;;;;;;;;;;;;16.54;100.00;100616.38;4977183;28;19952;-74
2023/09/20 09:16:33;;;;;;;;;;;;;;;16.51;100.00;100605.03;4971697;28;20072;-74
2023/09/20 09:18:58;;;;;;;;;;;;;;;16.57;100.00;100605.56;4974769;28;19918;-74
2023/09/20 09:21:25;;;;;;;;;;;;;;;16.58;100.00;100596.69;4976009;28;20216;-74
2023/09/20 09:23:50;;;;;;;;;;;;;;;16.60;100.00;100600.91;4975192;28;19952;-74
2023/09/20 09:26:16;;;;;;;;;;;;;;;16.65;100.00;100595.31;4972118;28;20108;-74
2023/09/20 09:28:42;;;;;;;;;;;;;;;16.68;100.00;100592.44;4971109;28;19950;-74
2023/09/20 09:31:08;;;;;;;;;;;;;;;16.70;100.00;100596.69;4991773;28;19964;-74
2023/09/20 09:33:35;;;;;;;;;;;;;;;16.72;100.00;100583.38;4980424;28;19922;-74
2023/09/20 09:36:01;;;;;;;;;;;;;;;16.75;100.00;100595.50;4970345;28;20153;-74
2023/09/20 09:38:26;;;;;;;;;;;;;;;16.78;100.00;100597.94;4975470;28;19925;-74
2023/09/20 09:40:56;;;;;;;;;;;;;;;16.79;100.00;100592.56;4966041;28;19921;-74
2023/09/20 09:43:23;;;;;;;;;;;;;;;16.79;100.00;100589.91;4986323;28;19910;-74
2023/09/20 09:45:50;;;;;;;;;;;;;;;16.80;100.00;100591.59;4965407;28;19918;-74
2023/09/20 09:48:16;;;;;;;;;;;;;;;16.81;100.00;100587.16;4969535;28;19918;-74
2023/09/20 09:50:45;;;;;;;;;;;;;;;16.82;100.00;100580.91;4970225;28;19945;-74
2023/09/20 09:53:13;;;;;;;;;;;;;;;16.82;100.00;100578.25;4969577;28;20185;-74
2023/09/20 09:55:41;;;;;;;;;;;;;;;16.83;100.00;100574.72;4969584;28;20117;-74
2023/09/20 09:58:09;;;;;;;;;;;;;;;16.86;100.00;100566.53;4972332;28;19941;-74
2023/09/20 10:00:36;;;;;;;;;;;;;;;16.89;100.00;100558.38;4963975;28;19914;-74
2023/09/20 10:03:06;;;;;;;;;;;;;;;16.91;100.00;100551.19;4968133;28;19917;-74
2023/09/20 10:05:33;;;;;;;;;;;;;;;16.95;100.00;100560.59;4968975;28;19913;-74
2023/09/20 10:08:01;;;;;;;;;;;;;;;16.98;100.00;100543.66;4968339;28;19980;-74
2023/09/20 10:10:27;;;;;;;;;;;;;;;17.00;100.00;100553.16;4983953;28;20255;-74
2023/09/20 10:12:52;;;;;;;;;;;;;;;17.02;100.00;100539.84;4990156;28;19961;-74
2023/09/20 10:15:19;;;;;;;;;;;;;;;17.01;100.00;100543.44;4964934;28;20112;-74
2023/09/20 10:17:51;;;;;;;;;;;;;;;17.02;100.00;100547.78;4984228;28;19922;-74
2023/09/20 10:20:18;;;;;;;;;;;;;;;17.00;100.00;100542.59;4974612;28;20162;-74
2023/09/20 10:22:47;;;;;;;;;;;;;;;17.00;100.00;100526.72;4971877;28;19972;-74
2023/09/20 10:25:28;;;;;;;;;;;;;;;17.01;100.00;100531.06;4990187;28;20119;-74
2023/09/20 10:27:53;;;;;;;;;;;;;;;17.03;100.00;100520.38;4988493;28;19918;-74
2023/09/20 10:30:21;;;;;;;;;;;;;;;17.05;100.00;100529.03;4970779;28;20259;-74
2023/09/20 10:32:53;;;;;;;;;;;;;;;17.07;100.00;100538.53;4972210;28;20232;-74
2023/09/20 10:35:30;;;;;;;;;;;;;;;17.06;100.00;100528.94;4973750;28;20121;-74
2023/09/20 10:38:04;;;;;;;;;;;;;;;17.06;100.00;100530.72;4973173;28;19918;-74
2023/09/20 10:40:45;;;;;;;;;;;;;;;17.08;100.00;100524.38;4973839;28;19988;-74
2023/09/20 10:43:10;;;;;;;;;;;;;;;17.11;100.00;100530.38;4989165;28;20008;-74
2023/09/20 10:45:35;;;;;;;;;;;;;;;17.17;100.00;100524.63;4974548;28;20232;-74
2023/09/20 10:48:05;;;;;;;;;;;;;;;17.26;100.00;100519.53;4985041;28;19957;-74
2023/09/20 10:50:50;;;;;;;;;;;;;;;17.37;100.00;100510.78;4969191;28;20271;-74
2023/09/20 10:53:19;;;;;;;;;;;;;;;17.49;100.00;100511.66;4981766;28;20133;-74
2023/09/20 10:55:45;;;;;;;;;;;;;;;17.56;100.00;100499.66;4972564;28;19929;-74
2023/09/20 10:58:13;;;;;;;;;;;;;;;17.61;100.00;100504.63;4965521;28;19917;-74
2023/09/20 11:00:38;;;;;;;;;;;;;;;17.70;99.84;100503.06;4969495;28;19944;-74
2023/09/20 11:03:06;;;;;;;;;;;;;;;17.77;99.03;100507.78;4974179;28;19921;-74
2023/09/20 11:05:32;;;;;;;;;;;;;;;17.83;99.22;100523.22;4974506;28;19968;-74
2023/09/20 11:08:03;;;;;;;;;;;;;;;17.88;99.34;100511.44;4966427;28;20125;-74
2023/09/20 11:10:29;;;;;;;;;;;;;;;17.91;98.64;100503.25;4972866;28;20132;-74
2023/09/20 11:12:55;;;;;;;;;;;;;;;17.91;98.36;100509.41;4972470;28;19929;-74
2023/09/20 11:15:20;;;;;;;;;;;;;;;17.92;97.81;100521.69;4973135;28;20116;-74
2023/09/20 11:17:47;;;;;;;;;;;;;;;17.91;97.31;100535.06;4982160;28;19918;-74
2023/09/20 11:20:12;;;;;;;;;;;;;;;17.86;95.67;100531.91;4969118;28;20110;-75
2023/09/20 11:22:38;;;;;;;;;;;;;;;17.84;95.68;100514.31;4965511;28;19925;-74
2023/09/20 11:25:06;;;;;;;;;;;;;;;17.87;95.59;100520.38;4984725;28;19944;-74
2023/09/20 11:27:35;;;;;;;;;;;;;;;17.87;95.81;100509.78;4966626;28;19956;-74
2023/09/20 11:30:08;;;;;;;;;;;;;;;17.88;95.43;100514.94;4968159;28;19993;-74
2023/09/20 11:32:33;;;;;;;;;;;;;;;17.90;94.17;100499.78;4968542;28;19922;-74
2023/09/20 11:34:59;;;;;;;;;;;;;;;17.93;94.71;100504.81;4968399;28;20161;-74
2023/09/20 11:37:24;;;;;;;;;;;;;;;17.96;94.32;100504.59;4965729;28;20201;-74
2023/09/20 11:39:50;;;;;;;;;;;;;;;18.00;94.51;100494.59;4977233;28;19918;-74
2023/09/20 11:42:26;;;;;;;;;;;;;;;18.06;94.83;100488.81;4972665;28;20157;-74
2023/09/20 11:44:56;;;;;;;;;;;;;;;18.09;94.34;100499.19;4972318;28;20316;-74
2023/09/20 11:47:21;;;;;;;;;;;;;;;18.10;93.30;100506.19;4968493;28;19921;-74
2023/09/20 11:49:47;;;;;;;;;;;;;;;18.15;92.99;100490.75;4972937;28;19945;-74
2023/09/20 11:52:16;;;;;;;;;;;;;;;18.19;93.65;100491.34;4965265;28;20031;-74
2023/09/20 11:54:43;;;;;;;;;;;;;;;18.25;93.42;100495.34;4966866;28;20260;-74
2023/09/20 11:57:08;;;;;;;;;;;;;;;18.31;92.39;100486.91;4971232;28;20236;-74
2023/09/20 11:59:41;;;;;;;;;;;;;;;18.32;92.60;100492.09;4970219;28;19918;-74
2023/09/20 12:02:08;;;;;;;;;;;;;;;18.30;93.33;100493.16;4973902;28;19917;-74
2023/09/20 12:04:33;;;;;;;;;;;;;;;18.30;93.82;100486.06;4968340;28;19996;-74
2023/09/20 12:06:59;;;;;;;;;;;;;;;18.32;92.68;100486.81;4972620;28;20067;-74
2023/09/20 12:09:24;;;;;;;;;;;;;;;18.36;93.38;100471.50;4973359;28;20205;-74
2023/09/20 12:11:50;;;;;;;;;;;;;;;18.39;93.39;100468.56;4972105;28;19969;-74
2023/09/20 12:14:15;;;;;;;;;;;;;;;18.40;93.49;100467.63;4972190;28;20345;-74
2023/09/20 12:16:47;;;;;;;;;;;;;;;18.41;93.42;100464.03;4977701;28;19980;-74
2023/09/20 12:19:12;;;;;;;;;;;;;;;18.40;92.76;100462.31;4968489;28;20012;-74
2023/09/20 12:21:37;;;;;;;;;;;;;;;18.41;92.80;100458.72;4971929;28;20152;-74
2023/09/20 12:24:04;;;;;;;;;;;;;;;18.41;92.59;100453.41;4970970;28;19917;-74
2023/09/20 12:26:29;;;;;;;;;;;;;;;18.39;92.82;100452.66;4971376;28;19964;-74
2023/09/20 12:28:55;;;;;;;;;;;;;;;18.40;92.69;100441.94;4968125;28;19918;-73
2023/09/20 12:31:23;;;;;;;;;;;;;;;18.41;92.79;100432.22;4972339;28;19921;-74
2023/09/20 12:33:49;;;;;;;;;;;;;;;18.44;93.29;100424.00;4969736;28;19917;-74
2023/09/20 12:36:15;;;;;;;;;;;;;;;18.47;92.73;100425.56;4972976;28;20213;-74
2023/09/20 12:38:40;;;;;;;;;;;;;;;18.48;91.78;100422.81;4971502;28;19992;-74
2023/09/20 12:41:08;;;;;;;;;;;;;;;18.49;92.09;100426.28;4971351;28;20117;-74
2023/09/20 12:43:34;;;;;;;;;;;;;;;18.50;92.06;100420.00;4972397;28;19918;-74
2023/09/20 12:45:59;;;;;;;;;;;;;;;18.50;92.29;100420.88;4971015;28;20175;-74
2023/09/20 12:48:24;;;;;;;;;;;;;;;18.53;92.82;100420.59;4967993;28;19918;-74
2023/09/20 12:50:50;;;;;;;;;;;;;;;18.57;91.79;100403.50;4970368;28;19984;-74
2023/09/20 12:53:15;;;;;;;;;;;;;;;18.62;90.99;100413.72;4972581;28;20203;-74
2023/09/20 12:55:40;;;;;;;;;;;;;;;18.67;91.51;100406.22;4966617;28;19941;-74
2023/09/20 12:58:06;;;;;;;;;;;;;;;18.73;90.12;100402.22;4972436;28;20205;-74
2023/09/20 13:00:32;;;;;;;;;;;;;;;18.75;90.62;100392.31;4966661;28;19918;-74
2023/09/20 13:02:59;;;;;;;;;;;;;;;18.79;90.86;100399.06;4965622;28;19922;-74
2023/09/20 13:05:24;;;;;;;;;;;;;;;18.83;89.85;100395.25;4984575;28;19928;-74
2023/09/20 13:07:50;;;;;;;;;;;;;;;18.87;89.09;100401.97;4968277;28;19925;-74